createdAt,value
2019-02-21T00:01:28.836Z,55.15
2019-02-21T00:04:00.516Z,55.42
2019-02-21T00:06:31.842Z,55.79
2019-02-21T00:09:04.822Z,55.76
2019-02-21T00:11:36.352Z,55.97
2019-02-21T00:14:07.702Z,55.49
2019-02-21T00:16:40.189Z,55.73
2019-02-21T00:19:11.791Z,55.66
2019-02-21T00:21:43.323Z,55.63
2019-02-21T00:24:15.425Z,55.43
2019-02-21T00:26:46.622Z,55.70
2019-02-21T00:29:18.405Z,55.25
2019-02-21T00:31:49.825Z,55.10
2019-02-21T00:34:21.527Z,55.25
2019-02-21T00:36:53.171Z,55.10
2019-02-21T00:39:24.610Z,55.10
2019-02-21T00:41:56.150Z,55.47
2019-02-21T00:44:27.547Z,55.10
2019-02-21T00:46:59.055Z,55.29
2019-02-21T00:49:30.489Z,55.50
2019-02-21T00:52:02.861Z,55.72
2019-02-21T00:54:34.718Z,56.38
2019-02-21T00:57:06.310Z,56.74
2019-02-21T00:59:37.532Z,57.77
2019-02-21T01:02:09.018Z,58.51
2019-02-21T01:04:40.575Z,59.12
2019-02-21T01:07:12.200Z,59.08
2019-02-21T01:09:43.884Z,59.18
2019-02-21T01:12:15.171Z,59.82
2019-02-21T01:14:46.716Z,60.09
2019-02-21T01:17:18.315Z,60.41
2019-02-21T01:19:49.789Z,60.65
2019-02-21T01:22:21.220Z,61.06
2019-02-21T01:24:53.011Z,61.50
2019-02-21T01:27:24.674Z,61.53
2019-02-21T01:29:56.145Z,61.65
2019-02-21T01:32:27.502Z,61.69
2019-02-21T01:34:59.319Z,61.83
2019-02-21T01:37:30.797Z,61.81
2019-02-21T01:40:02.140Z,61.58
2019-02-21T01:42:34.080Z,61.42
2019-02-21T01:45:05.817Z,61.60
2019-02-21T01:47:37.432Z,61.28
2019-02-21T01:50:08.987Z,60.93
2019-02-21T01:52:40.402Z,60.91
2019-02-21T01:55:11.887Z,60.83
2019-02-21T01:57:43.491Z,60.86
2019-02-21T02:00:14.938Z,60.61
2019-02-21T02:02:46.450Z,60.46
2019-02-21T02:05:18.107Z,60.67
2019-02-21T02:07:49.755Z,60.02
2019-02-21T02:10:21.748Z,59.92
2019-02-21T02:12:53.283Z,59.56
2019-02-21T02:15:24.990Z,59.29
2019-02-21T02:17:57.492Z,59.31
2019-02-21T02:20:28.902Z,59.30
2019-02-21T02:23:00.283Z,59.36
2019-02-21T02:25:32.030Z,59.16
2019-02-21T02:28:03.528Z,59.25
2019-02-21T02:30:35.217Z,59.46
2019-02-21T02:33:06.774Z,59.25
2019-02-21T02:35:39.326Z,59.02
2019-02-21T02:38:10.950Z,58.71
2019-02-21T02:40:42.517Z,58.70
2019-02-21T02:43:14.269Z,59.07
2019-02-21T02:45:45.874Z,59.03
2019-02-21T02:48:17.453Z,59.42
2019-02-21T02:50:49.344Z,59.82
2019-02-21T02:53:21.005Z,59.32
2019-02-21T02:55:52.268Z,59.62
2019-02-21T02:58:23.941Z,59.70
2019-02-21T03:00:55.579Z,59.95
2019-02-21T03:03:27.017Z,60.15
2019-02-21T03:05:58.681Z,59.96
2019-02-21T03:08:30.262Z,60.05
2019-02-21T03:11:01.973Z,60.86
2019-02-21T03:13:33.433Z,60.99
2019-02-21T03:16:05.146Z,60.89
2019-02-21T03:18:36.520Z,61.33
2019-02-21T03:21:08.054Z,61.47
2019-02-21T03:23:39.561Z,61.38
2019-02-21T03:26:11.440Z,61.29
2019-02-21T03:28:42.822Z,61.06
2019-02-21T03:31:14.156Z,61.03
2019-02-21T03:33:46.574Z,60.79
2019-02-21T03:36:18.141Z,60.40
2019-02-21T03:38:49.890Z,60.23
2019-02-21T03:41:21.402Z,60.12
2019-02-21T03:43:53.063Z,59.66
2019-02-21T03:46:24.456Z,59.17
2019-02-21T03:48:55.970Z,58.89
2019-02-21T03:51:27.461Z,59.11
2019-02-21T03:53:59.095Z,59.22
2019-02-21T03:56:30.787Z,59.00
2019-02-21T03:59:02.273Z,59.02
2019-02-21T04:01:34.652Z,58.83
2019-02-21T04:04:06.164Z,58.53
2019-02-21T04:06:37.618Z,57.84
2019-02-21T04:09:10.050Z,58.32
2019-02-21T04:11:41.285Z,58.17
2019-02-21T04:14:12.910Z,57.97
2019-02-21T04:16:44.367Z,57.88
2019-02-21T04:19:15.829Z,57.95
2019-02-21T04:21:47.424Z,57.50
2019-02-21T04:24:20.264Z,57.35
2019-02-21T04:26:51.490Z,57.44
2019-02-21T04:29:23.166Z,57.08
2019-02-21T04:31:54.839Z,56.74
2019-02-21T04:34:26.441Z,56.48
2019-02-21T04:36:57.913Z,56.62
2019-02-21T04:39:29.525Z,56.61
2019-02-21T04:42:00.746Z,56.55
2019-02-21T04:44:32.367Z,56.98
2019-02-21T04:47:03.701Z,56.41
2019-02-21T04:49:35.088Z,56.41
2019-02-21T04:52:06.291Z,56.13
2019-02-21T04:54:37.674Z,55.55
2019-02-21T04:57:09.024Z,55.83
2019-02-21T04:59:40.310Z,55.94
2019-02-21T05:02:11.737Z,56.21
2019-02-21T05:04:43.038Z,56.72
2019-02-21T05:07:14.421Z,56.57
2019-02-21T05:09:57.043Z,56.60
2019-02-21T05:12:19.545Z,56.88
2019-02-21T05:14:50.761Z,56.95
2019-02-21T05:17:22.151Z,56.43
2019-02-21T05:19:53.448Z,57.41
2019-02-21T05:22:25.030Z,57.13
2019-02-21T05:24:56.649Z,57.45
2019-02-21T05:27:31.565Z,57.60
2019-02-21T05:30:03.015Z,57.87
2019-02-21T05:32:53.195Z,58.12
2019-02-21T05:35:31.529Z,58.33
2019-02-21T05:38:22.000Z,58.30
2019-02-21T05:41:04.629Z,58.15
2019-02-21T05:43:54.977Z,57.55
2019-02-21T05:46:32.926Z,58.52
2019-02-21T05:49:16.689Z,58.34
2019-02-21T05:52:01.597Z,58.84
2019-02-21T05:54:51.992Z,59.25
2019-02-21T05:57:48.364Z,59.66
2019-02-21T06:00:37.674Z,59.11
2019-02-21T06:03:13.981Z,58.46
2019-02-21T06:06:10.113Z,57.28
2019-02-21T06:09:00.337Z,56.25
2019-02-21T06:11:48.885Z,54.94
2019-02-21T06:14:45.386Z,54.61
2019-02-21T06:17:34.407Z,53.58
2019-02-21T06:20:23.514Z,52.63
2019-02-21T06:23:12.573Z,52.78
2019-02-21T06:26:02.830Z,53.08
2019-02-21T06:28:42.474Z,53.26
2019-02-21T06:31:16.881Z,52.27
2019-02-21T06:33:49.484Z,52.35
2019-02-21T06:36:20.927Z,52.53
2019-02-21T06:38:52.469Z,52.15
2019-02-21T06:41:23.855Z,51.86
2019-02-21T06:43:56.850Z,51.61
2019-02-21T06:46:28.520Z,51.37
2019-02-21T06:49:00.022Z,51.78
2019-02-21T06:51:31.373Z,52.13
2019-02-21T06:54:02.838Z,52.75
2019-02-21T06:56:34.433Z,53.02
2019-02-21T06:59:05.799Z,53.68
2019-02-21T07:01:37.363Z,52.97
2019-02-21T07:04:08.980Z,53.01
2019-02-21T07:06:42.097Z,52.82
2019-02-21T07:09:13.612Z,52.54
2019-02-21T07:11:46.009Z,52.65
2019-02-21T07:14:17.644Z,52.62
2019-02-21T07:16:49.097Z,52.69
2019-02-21T07:19:20.635Z,52.14
2019-02-21T07:21:52.227Z,52.35
2019-02-21T07:24:24.075Z,51.54
2019-02-21T07:26:55.436Z,51.81
2019-02-21T07:29:26.906Z,50.79
2019-02-21T07:31:58.445Z,50.92
2019-02-21T07:34:30.592Z,51.21
2019-02-21T07:37:02.043Z,51.19
2019-02-21T07:39:36.337Z,50.51
2019-02-21T07:42:07.117Z,50.78
2019-02-21T07:44:38.869Z,49.86
2019-02-21T07:47:10.532Z,49.24
2019-02-21T07:49:42.254Z,50.71
2019-02-21T07:52:13.690Z,50.86
2019-02-21T07:54:44.951Z,50.93
2019-02-21T07:57:16.594Z,51.34
2019-02-21T07:59:47.932Z,50.63
2019-02-21T08:02:21.052Z,49.57
2019-02-21T08:04:52.771Z,49.14
2019-02-21T08:07:26.273Z,49.82
2019-02-21T08:09:58.517Z,49.93
2019-02-21T08:12:30.048Z,49.71
2019-02-21T08:15:01.879Z,49.30
2019-02-21T08:17:34.423Z,49.24
2019-02-21T08:20:08.765Z,48.27
2019-02-21T08:22:39.507Z,48.20
2019-02-21T08:25:11.296Z,47.86
2019-02-21T08:27:42.740Z,47.50
2019-02-21T08:30:15.413Z,47.74
2019-02-21T08:33:14.477Z,47.46
2019-02-21T08:35:46.075Z,46.79
2019-02-21T08:38:17.714Z,45.90
2019-02-21T08:40:49.170Z,44.58
2019-02-21T08:43:20.922Z,43.84
2019-02-21T08:45:52.218Z,43.55
2019-02-21T08:48:23.612Z,43.85
2019-02-21T08:50:55.192Z,43.50
2019-02-21T08:53:28.081Z,43.38
2019-02-21T08:56:00.006Z,42.46
2019-02-21T08:58:31.249Z,41.41
2019-02-21T09:01:03.237Z,41.32
2019-02-21T09:03:35.170Z,41.55
2019-02-21T09:06:07.082Z,41.79
2019-02-21T09:08:38.132Z,40.97
2019-02-21T09:11:09.804Z,40.81
2019-02-21T09:13:41.790Z,40.23
2019-02-21T09:16:13.270Z,39.60
2019-02-21T09:18:44.395Z,38.94
2019-02-21T09:21:15.969Z,38.60
2019-02-21T09:23:47.465Z,38.74
2019-02-21T09:26:21.459Z,38.37
2019-02-21T09:28:51.883Z,39.69
2019-02-21T09:31:23.565Z,40.81
2019-02-21T09:33:55.444Z,41.84
2019-02-21T09:36:26.954Z,41.83
2019-02-21T09:38:58.091Z,41.33
2019-02-21T09:41:29.460Z,41.57
2019-02-21T09:44:00.839Z,38.93
2019-02-21T09:46:32.467Z,39.08
2019-02-21T09:49:03.876Z,38.76
2019-02-21T09:51:36.627Z,38.50
2019-02-21T09:54:08.025Z,38.13
2019-02-21T09:56:39.222Z,38.44
2019-02-21T09:59:10.544Z,38.25
2019-02-21T10:01:41.769Z,38.07
2019-02-21T10:04:12.995Z,37.95
2019-02-21T10:06:44.298Z,37.81
2019-02-21T10:09:15.557Z,39.07
2019-02-21T10:11:46.779Z,38.20
2019-02-21T10:14:18.087Z,37.29
2019-02-21T10:16:49.742Z,36.96
2019-02-21T10:19:21.142Z,36.92
2019-02-21T10:21:52.498Z,35.67
2019-02-21T10:24:23.552Z,36.25
2019-02-21T10:26:54.979Z,36.44
2019-02-21T10:29:26.201Z,35.25
2019-02-21T10:31:57.766Z,35.03
2019-02-21T10:34:29.029Z,35.37
2019-02-21T10:37:00.414Z,36.81
2019-02-21T10:39:31.651Z,36.67
2019-02-21T10:42:02.854Z,35.25
2019-02-21T10:44:34.000Z,35.85
2019-02-21T10:47:05.265Z,36.08
2019-02-21T10:49:36.335Z,36.50
2019-02-21T10:52:07.555Z,37.53
2019-02-21T10:54:38.828Z,37.44
2019-02-21T10:57:10.075Z,38.09
2019-02-21T10:59:46.575Z,37.07
2019-02-21T11:02:15.645Z,38.00
2019-02-21T11:04:54.338Z,37.51
2019-02-21T11:07:20.354Z,37.14
2019-02-21T11:09:51.800Z,38.21
2019-02-21T11:12:22.906Z,38.62
2019-02-21T11:14:54.231Z,38.17
2019-02-21T11:17:25.941Z,37.23
2019-02-21T11:19:57.143Z,36.89
2019-02-21T11:22:28.333Z,37.94
2019-02-21T11:24:59.620Z,37.49
2019-02-21T11:27:31.173Z,36.65
2019-02-21T11:30:02.167Z,35.80
2019-02-21T11:32:34.070Z,36.50
2019-02-21T11:35:06.807Z,36.10
2019-02-21T11:37:44.287Z,37.57
2019-02-21T11:40:12.456Z,37.38
2019-02-21T11:42:43.845Z,37.75
2019-02-21T11:45:16.184Z,37.25
2019-02-21T11:47:47.572Z,35.65
2019-02-21T11:50:19.038Z,35.76
2019-02-21T11:52:50.323Z,35.64
2019-02-21T11:55:22.579Z,35.21
2019-02-21T11:57:53.627Z,35.49
2019-02-21T12:00:26.452Z,35.42
2019-02-21T12:02:58.047Z,36.08
2019-02-21T12:05:31.302Z,37.31
2019-02-21T12:08:02.563Z,36.90
2019-02-21T12:10:33.920Z,36.08
2019-02-21T12:13:05.161Z,35.77
2019-02-21T12:15:36.424Z,36.25
2019-02-21T12:18:07.720Z,35.69
2019-02-21T12:20:39.240Z,36.33
2019-02-21T12:23:10.652Z,35.50
2019-02-21T12:25:41.827Z,36.46
2019-02-21T12:28:13.261Z,36.19
2019-02-21T12:30:44.713Z,35.56
2019-02-21T12:33:15.629Z,35.30
2019-02-21T12:35:46.916Z,36.04
2019-02-21T12:38:18.132Z,35.76
2019-02-21T12:40:49.436Z,35.57
2019-02-21T12:43:20.998Z,35.55
2019-02-21T12:45:53.750Z,35.51
2019-02-21T12:48:24.935Z,35.67
2019-02-21T12:50:56.199Z,36.20
2019-02-21T12:53:28.180Z,36.47
2019-02-21T12:55:59.878Z,36.36
2019-02-21T12:58:31.070Z,36.52
2019-02-21T13:01:02.311Z,36.41
2019-02-21T13:03:33.534Z,36.42
2019-02-21T13:06:04.904Z,36.56
2019-02-21T13:08:35.999Z,36.36
2019-02-21T13:11:08.451Z,36.04
2019-02-21T13:13:39.712Z,35.49
2019-02-21T13:16:10.753Z,35.43
2019-02-21T13:18:42.225Z,35.62
2019-02-21T13:21:13.671Z,35.71
2019-02-21T13:23:44.975Z,35.66
2019-02-21T13:26:16.274Z,35.47
2019-02-21T13:28:47.621Z,36.15
2019-02-21T13:31:18.892Z,35.88
2019-02-21T13:33:50.017Z,36.46
2019-02-21T13:36:21.337Z,35.73
2019-02-21T13:38:52.510Z,36.09
2019-02-21T13:41:23.911Z,35.63
2019-02-21T13:43:55.204Z,35.61
2019-02-21T13:46:36.904Z,35.09
2019-02-21T13:48:59.202Z,35.38
2019-02-21T13:51:30.452Z,34.99
2019-02-21T13:54:01.389Z,35.46
2019-02-21T13:56:32.772Z,35.67
2019-02-21T13:59:03.773Z,35.60
2019-02-21T14:01:34.937Z,36.33
2019-02-21T14:04:05.977Z,35.89
2019-02-21T14:06:37.357Z,36.31
2019-02-21T14:09:08.969Z,36.19
2019-02-21T14:11:40.937Z,36.06
2019-02-21T14:14:12.323Z,35.48
2019-02-21T14:16:46.804Z,36.14
2019-02-21T14:19:16.830Z,35.88
2019-02-21T14:21:48.142Z,35.26
2019-02-21T14:24:19.535Z,34.23
2019-02-21T14:26:50.560Z,34.84
2019-02-21T14:29:22.200Z,35.16
2019-02-21T14:31:53.468Z,35.66
2019-02-21T14:34:24.467Z,35.67
2019-02-21T14:36:55.824Z,36.03
2019-02-21T14:39:27.595Z,35.84
2019-02-21T14:41:58.733Z,35.64
2019-02-21T14:44:29.938Z,35.03
2019-02-21T14:47:01.352Z,35.03
2019-02-21T14:49:32.727Z,35.47
2019-02-21T14:52:04.414Z,35.73
2019-02-21T14:54:38.056Z,35.75
2019-02-21T14:57:09.537Z,36.37
2019-02-21T14:59:40.875Z,36.80
2019-02-21T15:02:12.200Z,36.15
2019-02-21T15:04:43.863Z,36.41
2019-02-21T15:07:15.501Z,36.63
2019-02-21T15:09:46.864Z,36.31
2019-02-21T15:12:18.362Z,36.33
2019-02-21T15:14:49.696Z,36.81
2019-02-21T15:17:21.282Z,36.90
2019-02-21T15:19:52.850Z,36.81
2019-02-21T15:22:24.489Z,36.51
2019-02-21T15:24:56.092Z,37.18
2019-02-21T15:27:27.471Z,37.20
2019-02-21T15:29:58.724Z,37.17
2019-02-21T15:32:30.386Z,37.53
2019-02-21T15:35:01.783Z,38.16
2019-02-21T15:37:35.060Z,38.77
2019-02-21T15:40:08.820Z,38.79
2019-02-21T15:42:40.367Z,38.86
2019-02-21T15:45:22.329Z,38.65
2019-02-21T15:47:47.768Z,38.98
2019-02-21T15:50:20.145Z,38.66
2019-02-21T15:52:51.823Z,38.63
2019-02-21T15:55:23.321Z,38.98
2019-02-21T15:58:03.303Z,38.94
2019-02-21T16:00:27.966Z,39.24
2019-02-21T16:02:59.646Z,39.87
2019-02-21T16:05:31.313Z,39.97
2019-02-21T16:08:02.954Z,39.78
2019-02-21T16:10:34.420Z,40.50
2019-02-21T16:13:05.955Z,40.59
2019-02-21T16:15:37.490Z,40.87
2019-02-21T16:18:08.910Z,41.27
2019-02-21T16:20:42.409Z,41.32
2019-02-21T16:23:14.039Z,42.00
2019-02-21T16:25:45.452Z,41.74
2019-02-21T16:28:16.657Z,42.06
2019-02-21T16:30:48.244Z,42.43
2019-02-21T16:33:19.445Z,42.58
2019-02-21T16:35:51.058Z,42.27
2019-02-21T16:38:22.587Z,42.83
2019-02-21T16:40:54.266Z,43.08
2019-02-21T16:43:26.053Z,43.25
2019-02-21T16:46:07.349Z,43.35
2019-02-21T16:48:31.297Z,43.43
2019-02-21T16:51:02.770Z,43.99
2019-02-21T16:53:34.584Z,44.23
2019-02-21T16:56:06.882Z,44.60
2019-02-21T16:58:38.512Z,44.90
2019-02-21T17:01:09.964Z,45.10
2019-02-21T17:03:41.355Z,45.16
2019-02-21T17:06:12.767Z,45.33
2019-02-21T17:08:44.421Z,46.04
2019-02-21T17:11:16.032Z,45.98
2019-02-21T17:13:47.521Z,46.38
2019-02-21T17:16:19.026Z,46.39
2019-02-21T17:18:50.567Z,46.47
2019-02-21T17:21:21.902Z,47.08
2019-02-21T17:23:53.914Z,47.44
2019-02-21T17:26:25.379Z,47.91
2019-02-21T17:28:56.787Z,47.99
2019-02-21T17:31:28.123Z,48.46
2019-02-21T17:33:59.618Z,48.62
2019-02-21T17:36:32.795Z,48.56
2019-02-21T17:39:05.047Z,48.51
2019-02-21T17:41:37.950Z,48.48
2019-02-21T17:44:09.649Z,48.21
2019-02-21T17:46:42.402Z,48.73
2019-02-21T17:49:15.608Z,48.60
2019-02-21T17:51:48.273Z,48.20
2019-02-21T17:54:19.736Z,48.27
2019-02-21T17:56:51.000Z,48.55
2019-02-21T17:59:22.542Z,48.21
2019-02-21T18:01:54.042Z,48.68
2019-02-21T18:04:25.863Z,48.57
2019-02-21T18:06:57.233Z,48.61
2019-02-21T18:09:28.831Z,48.54
2019-02-21T18:12:00.126Z,48.46
2019-02-21T18:14:31.747Z,48.27
2019-02-21T18:17:03.456Z,48.14
2019-02-21T18:19:34.975Z,48.14
2019-02-21T18:22:06.648Z,47.79
2019-02-21T18:24:37.901Z,47.83
2019-02-21T18:27:09.180Z,47.76
2019-02-21T18:29:40.403Z,47.45
2019-02-21T18:32:11.697Z,47.59
2019-02-21T18:34:43.131Z,47.72
2019-02-21T18:37:14.542Z,47.99
2019-02-21T18:39:45.951Z,47.74
2019-02-21T18:42:17.457Z,48.18
2019-02-21T18:44:48.817Z,48.16
2019-02-21T18:47:20.215Z,48.09
2019-02-21T18:49:51.577Z,47.58
2019-02-21T18:52:22.948Z,47.50
2019-02-21T18:54:54.209Z,47.65
2019-02-21T18:57:25.910Z,47.42
2019-02-21T18:59:57.185Z,47.90
2019-02-21T19:02:28.634Z,47.64
2019-02-21T19:05:00.019Z,48.05
2019-02-21T19:07:31.389Z,48.06
2019-02-21T19:10:02.918Z,48.37
2019-02-21T19:12:34.534Z,48.25
2019-02-21T19:15:06.369Z,48.52
2019-02-21T19:17:37.797Z,48.57
2019-02-21T19:20:10.490Z,48.52
2019-02-21T19:22:41.951Z,48.76
2019-02-21T19:25:14.039Z,48.55
2019-02-21T19:27:45.506Z,48.69
2019-02-21T19:30:21.113Z,48.71
2019-02-21T19:32:52.797Z,48.85
2019-02-21T19:35:24.440Z,48.95
2019-02-21T19:37:56.375Z,48.92
2019-02-21T19:40:27.915Z,49.06
2019-02-21T19:43:00.256Z,49.04
2019-02-21T19:45:32.319Z,49.42
2019-02-21T19:48:04.533Z,48.72
2019-02-21T19:50:36.171Z,49.25
2019-02-21T19:53:07.935Z,49.80
2019-02-21T19:55:39.475Z,50.63
2019-02-21T19:58:10.901Z,51.21
2019-02-21T20:00:42.615Z,51.79
2019-02-21T20:03:14.200Z,52.27
2019-02-21T20:05:45.871Z,52.13
2019-02-21T20:08:21.390Z,52.54
2019-02-21T20:10:51.258Z,52.50
2019-02-21T20:13:22.739Z,52.99
2019-02-21T20:15:54.407Z,52.72
2019-02-21T20:18:26.099Z,53.17
2019-02-21T20:20:57.495Z,53.35
2019-02-21T20:23:29.142Z,52.98
2019-02-21T20:26:00.800Z,53.02
2019-02-21T20:28:32.221Z,53.03
2019-02-21T20:31:05.318Z,53.15
2019-02-21T20:33:36.923Z,53.12
2019-02-21T20:36:08.365Z,53.38
2019-02-21T20:38:39.695Z,53.27
2019-02-21T20:41:11.055Z,52.91
2019-02-21T20:43:42.512Z,53.06
2019-02-21T20:46:14.047Z,53.36
2019-02-21T20:48:45.369Z,53.08
2019-02-21T20:51:17.907Z,52.74
2019-02-21T20:53:49.501Z,52.95
2019-02-21T20:56:21.278Z,52.95
2019-02-21T20:58:52.817Z,53.02
2019-02-21T21:01:24.249Z,52.73
2019-02-21T21:03:55.738Z,52.63
2019-02-21T21:06:27.260Z,52.54
2019-02-21T21:08:58.690Z,52.10
2019-02-21T21:11:30.131Z,51.75
2019-02-21T21:14:01.872Z,51.78
2019-02-21T21:16:33.722Z,51.72
2019-02-21T21:19:05.521Z,51.96
2019-02-21T21:21:36.932Z,51.87
2019-02-21T21:24:08.526Z,51.57
2019-02-21T21:26:40.011Z,51.98
2019-02-21T21:29:11.773Z,51.73
2019-02-21T21:31:43.315Z,51.99
2019-02-21T21:34:14.808Z,51.97
2019-02-21T21:36:46.327Z,52.01
2019-02-21T21:39:18.088Z,51.95
2019-02-21T21:41:49.615Z,52.35
2019-02-21T21:44:21.097Z,52.47
2019-02-21T21:46:52.599Z,52.67
2019-02-21T21:49:24.325Z,52.05
2019-02-21T21:51:56.315Z,52.03
2019-02-21T21:54:27.652Z,51.92
2019-02-21T21:56:59.336Z,52.00
2019-02-21T21:59:30.857Z,51.79
2019-02-21T22:02:02.424Z,51.70
2019-02-21T22:04:34.268Z,51.62
2019-02-21T22:07:05.756Z,51.67
2019-02-21T22:09:37.495Z,51.76
2019-02-21T22:12:08.841Z,51.92
2019-02-21T22:14:40.460Z,51.90
2019-02-21T22:17:11.910Z,51.49
2019-02-21T22:19:43.420Z,51.56
2019-02-21T22:22:15.038Z,51.42
2019-02-21T22:24:46.529Z,51.54
2019-02-21T22:27:17.993Z,51.37
2019-02-21T22:29:49.580Z,51.53
2019-02-21T22:32:21.427Z,51.52
2019-02-21T22:34:52.972Z,51.36
2019-02-21T22:37:24.620Z,51.14
2019-02-21T22:39:56.431Z,51.24
2019-02-21T22:42:28.030Z,51.38
2019-02-21T22:44:59.530Z,51.14
2019-02-21T22:47:31.074Z,51.26
2019-02-21T22:50:02.673Z,51.95
2019-02-21T22:52:34.437Z,51.31
2019-02-21T22:55:09.793Z,50.86
2019-02-21T22:57:39.789Z,51.25
2019-02-21T23:01:00.289Z,51.28
2019-02-21T23:03:52.434Z,51.18
2019-02-21T23:06:45.772Z,51.58
2019-02-21T23:09:27.148Z,51.23
2019-02-21T23:11:52.795Z,51.68
2019-02-21T23:14:24.334Z,51.63
2019-02-21T23:16:56.036Z,51.84
2019-02-21T23:19:27.509Z,52.05
2019-02-21T23:21:59.187Z,51.94
2019-02-21T23:24:30.930Z,51.58
2019-02-21T23:27:02.657Z,51.49
2019-02-21T23:29:34.478Z,51.48
2019-02-21T23:32:06.149Z,51.73
2019-02-21T23:34:39.640Z,51.93
2019-02-21T23:37:11.450Z,51.62
2019-02-21T23:39:43.419Z,51.46
2019-02-21T23:42:14.822Z,51.40
2019-02-21T23:44:46.488Z,51.81
2019-02-21T23:47:18.137Z,51.42
2019-02-21T23:49:49.695Z,51.41
2019-02-21T23:52:21.476Z,51.28
2019-02-21T23:54:52.980Z,51.61
2019-02-21T23:57:24.682Z,51.27
2019-02-21T23:59:56.326Z,51.39
